sensor_id;sensor_type;location;lat;lon;timestamp;temperature;humidity
45008;DHT22;30743;52.008;5.644;2022-08-20T00:00:09;26.10;99.90
45008;DHT22;30743;52.008;5.644;2022-08-20T00:02:44;26.10;99.90
45008;DHT22;30743;52.008;5.644;2022-08-20T00:05:11;26.00;99.90
45008;DHT22;30743;52.008;5.644;2022-08-20T00:07:36;26.10;99.90
45008;DHT22;30743;52.008;5.644;2022-08-20T00:10:03;26.10;99.90
45008;DHT22;30743;52.008;5.644;2022-08-20T00:12:30;26.10;99.90
45008;DHT22;30743;52.008;5.644;2022-08-20T00:14:55;26.10;99.90
45008;DHT22;30743;52.008;5.644;2022-08-20T00:17:21;26.00;99.90
45008;DHT22;30743;52.008;5.644;2022-08-20T00:19:46;26.10;99.90
45008;DHT22;30743;52.008;5.644;2022-08-20T00:22:12;26.10;99.90
45008;DHT22;30743;52.008;5.644;2022-08-20T00:24:37;26.10;99.90
45008;DHT22;30743;52.008;5.644;2022-08-20T00:27:03;26.10;99.90
45008;DHT22;30743;52.008;5.644;2022-08-20T00:29:29;26.20;99.90
45008;DHT22;30743;52.008;5.644;2022-08-20T00:31:54;26.10;99.90
45008;DHT22;30743;52.008;5.644;2022-08-20T00:34:20;26.10;99.90
45008;DHT22;30743;52.008;5.644;2022-08-20T00:36:46;26.10;99.90
45008;DHT22;30743;52.008;5.644;2022-08-20T00:39:11;26.10;99.90
45008;DHT22;30743;52.008;5.644;2022-08-20T00:41:37;26.10;99.90
45008;DHT22;30743;52.008;5.644;2022-08-20T00:46:31;26.00;99.90
45008;DHT22;30743;52.008;5.644;2022-08-20T00:48:57;26.10;99.90
45008;DHT22;30743;52.008;5.644;2022-08-20T00:51:35;26.10;99.90
45008;DHT22;30743;52.008;5.644;2022-08-20T00:54:08;26.10;99.90
45008;DHT22;30743;52.008;5.644;2022-08-20T00:56:35;26.10;99.90
45008;DHT22;30743;52.008;5.644;2022-08-20T00:59:05;26.10;99.90
45008;DHT22;30743;52.008;5.644;2022-08-20T01:01:34;26.10;99.90
45008;DHT22;30743;52.008;5.644;2022-08-20T01:04:00;26.00;99.90
45008;DHT22;30743;52.008;5.644;2022-08-20T01:06:25;26.00;99.90
45008;DHT22;30743;52.008;5.644;2022-08-20T01:08:53;26.10;99.90
45008;DHT22;30743;52.008;5.644;2022-08-20T01:11:18;26.10;99.90
45008;DHT22;30743;52.008;5.644;2022-08-20T01:13:54;26.10;99.90
45008;DHT22;30743;52.008;5.644;2022-08-20T01:16:25;26.10;99.90
45008;DHT22;30743;52.008;5.644;2022-08-20T01:18:52;26.10;99.90
45008;DHT22;30743;52.008;5.644;2022-08-20T01:21:19;26.20;99.90
45008;DHT22;30743;52.008;5.644;2022-08-20T01:24:16;26.20;99.90
45008;DHT22;30743;52.008;5.644;2022-08-20T01:26:45;26.10;99.90
45008;DHT22;30743;52.008;5.644;2022-08-20T01:29:15;26.20;99.90
45008;DHT22;30743;52.008;5.644;2022-08-20T01:31:42;26.20;99.90
45008;DHT22;30743;52.008;5.644;2022-08-20T01:34:11;26.20;99.90
45008;DHT22;30743;52.008;5.644;2022-08-20T01:36:52;26.10;99.90
45008;DHT22;30743;52.008;5.644;2022-08-20T01:39:31;26.10;99.90
45008;DHT22;30743;52.008;5.644;2022-08-20T01:42:17;26.20;99.90
45008;DHT22;30743;52.008;5.644;2022-08-20T01:44:45;26.10;99.90
45008;DHT22;30743;52.008;5.644;2022-08-20T01:47:22;26.10;99.90
45008;DHT22;30743;52.008;5.644;2022-08-20T01:49:54;26.10;99.90
45008;DHT22;30743;52.008;5.644;2022-08-20T01:53:05;26.00;99.90
45008;DHT22;30743;52.008;5.644;2022-08-20T01:55:33;25.90;99.90
45008;DHT22;30743;52.008;5.644;2022-08-20T01:57:59;25.90;99.90
45008;DHT22;30743;52.008;5.644;2022-08-20T02:00:25;25.90;99.90
45008;DHT22;30743;52.008;5.644;2022-08-20T02:02:51;25.90;99.90
45008;DHT22;30743;52.008;5.644;2022-08-20T02:05:18;25.90;99.90
45008;DHT22;30743;52.008;5.644;2022-08-20T02:07:44;25.80;99.90
45008;DHT22;30743;52.008;5.644;2022-08-20T02:10:12;25.80;99.90
45008;DHT22;30743;52.008;5.644;2022-08-20T02:12:38;25.70;99.90
45008;DHT22;30743;52.008;5.644;2022-08-20T02:15:05;25.70;99.90
45008;DHT22;30743;52.008;5.644;2022-08-20T02:17:32;25.70;99.90
45008;DHT22;30743;52.008;5.644;2022-08-20T02:20:01;25.70;99.90
45008;DHT22;30743;52.008;5.644;2022-08-20T02:22:47;25.60;99.90
45008;DHT22;30743;52.008;5.644;2022-08-20T02:25:14;25.60;99.90
45008;DHT22;30743;52.008;5.644;2022-08-20T02:27:43;25.60;99.90
45008;DHT22;30743;52.008;5.644;2022-08-20T02:30:15;25.60;99.90
45008;DHT22;30743;52.008;5.644;2022-08-20T02:32:42;25.60;99.90
45008;DHT22;30743;52.008;5.644;2022-08-20T02:35:09;25.60;99.90
45008;DHT22;30743;52.008;5.644;2022-08-20T02:37:36;25.40;99.90
45008;DHT22;30743;52.008;5.644;2022-08-20T02:40:05;25.30;99.90
45008;DHT22;30743;52.008;5.644;2022-08-20T02:42:32;25.30;99.90
45008;DHT22;30743;52.008;5.644;2022-08-20T02:44:58;25.30;99.90
45008;DHT22;30743;52.008;5.644;2022-08-20T02:47:24;25.20;99.90
45008;DHT22;30743;52.008;5.644;2022-08-20T02:49:53;25.20;99.90
45008;DHT22;30743;52.008;5.644;2022-08-20T02:52:19;25.20;99.90
45008;DHT22;30743;52.008;5.644;2022-08-20T02:54:45;25.10;99.90
45008;DHT22;30743;52.008;5.644;2022-08-20T02:57:16;25.20;99.90
45008;DHT22;30743;52.008;5.644;2022-08-20T02:59:45;25.20;99.90
45008;DHT22;30743;52.008;5.644;2022-08-20T03:02:11;25.40;99.90
45008;DHT22;30743;52.008;5.644;2022-08-20T03:04:36;25.40;99.90
45008;DHT22;30743;52.008;5.644;2022-08-20T03:07:03;25.50;99.90
45008;DHT22;30743;52.008;5.644;2022-08-20T03:09:29;25.50;99.90
45008;DHT22;30743;52.008;5.644;2022-08-20T03:11:54;25.50;99.90
45008;DHT22;30743;52.008;5.644;2022-08-20T03:14:20;25.50;99.90
45008;DHT22;30743;52.008;5.644;2022-08-20T03:16:45;25.60;99.90
45008;DHT22;30743;52.008;5.644;2022-08-20T03:19:11;25.60;99.90
45008;DHT22;30743;52.008;5.644;2022-08-20T03:21:38;25.60;99.90
45008;DHT22;30743;52.008;5.644;2022-08-20T03:24:03;25.70;99.90
45008;DHT22;30743;52.008;5.644;2022-08-20T03:26:29;25.70;99.90
45008;DHT22;30743;52.008;5.644;2022-08-20T03:28:55;25.70;99.90
45008;DHT22;30743;52.008;5.644;2022-08-20T03:31:20;25.60;99.90
45008;DHT22;30743;52.008;5.644;2022-08-20T03:33:46;25.60;99.90
45008;DHT22;30743;52.008;5.644;2022-08-20T03:36:11;25.40;99.90
45008;DHT22;30743;52.008;5.644;2022-08-20T03:38:37;25.10;99.90
45008;DHT22;30743;52.008;5.644;2022-08-20T03:41:03;24.80;99.90
45008;DHT22;30743;52.008;5.644;2022-08-20T03:43:29;24.30;99.90
45008;DHT22;30743;52.008;5.644;2022-08-20T03:45:55;24.20;99.90
45008;DHT22;30743;52.008;5.644;2022-08-20T03:48:21;23.90;99.90
45008;DHT22;30743;52.008;5.644;2022-08-20T03:50:47;23.70;99.90
45008;DHT22;30743;52.008;5.644;2022-08-20T03:53:14;23.70;99.90
45008;DHT22;30743;52.008;5.644;2022-08-20T03:55:41;24.00;99.90
45008;DHT22;30743;52.008;5.644;2022-08-20T03:58:09;24.10;99.90
45008;DHT22;30743;52.008;5.644;2022-08-20T04:00:42;24.40;99.90
45008;DHT22;30743;52.008;5.644;2022-08-20T04:03:08;24.20;99.90
45008;DHT22;30743;52.008;5.644;2022-08-20T04:05:35;24.30;99.90
45008;DHT22;30743;52.008;5.644;2022-08-20T04:08:07;24.40;99.90
45008;DHT22;30743;52.008;5.644;2022-08-20T04:10:33;24.50;99.90
45008;DHT22;30743;52.008;5.644;2022-08-20T04:12:59;24.70;99.90
45008;DHT22;30743;52.008;5.644;2022-08-20T04:15:25;24.90;99.90
45008;DHT22;30743;52.008;5.644;2022-08-20T04:17:51;24.90;99.90
45008;DHT22;30743;52.008;5.644;2022-08-20T04:20:21;24.90;99.90
45008;DHT22;30743;52.008;5.644;2022-08-20T04:22:49;25.00;99.90
45008;DHT22;30743;52.008;5.644;2022-08-20T04:25:15;25.00;99.90
45008;DHT22;30743;52.008;5.644;2022-08-20T04:27:41;25.00;99.90
45008;DHT22;30743;52.008;5.644;2022-08-20T04:30:08;25.10;99.90
45008;DHT22;30743;52.008;5.644;2022-08-20T04:32:39;25.10;99.90
45008;DHT22;30743;52.008;5.644;2022-08-20T04:35:08;25.10;99.90
45008;DHT22;30743;52.008;5.644;2022-08-20T04:37:36;25.10;99.90
45008;DHT22;30743;52.008;5.644;2022-08-20T04:40:05;25.10;99.90
45008;DHT22;30743;52.008;5.644;2022-08-20T04:42:50;25.10;99.90
45008;DHT22;30743;52.008;5.644;2022-08-20T04:45:15;25.10;99.90
45008;DHT22;30743;52.008;5.644;2022-08-20T04:47:41;25.10;99.90
45008;DHT22;30743;52.008;5.644;2022-08-20T04:50:09;25.10;99.90
45008;DHT22;30743;52.008;5.644;2022-08-20T04:52:34;25.10;99.90
45008;DHT22;30743;52.008;5.644;2022-08-20T04:55:00;25.10;99.90
45008;DHT22;30743;52.008;5.644;2022-08-20T04:57:26;25.20;99.90
45008;DHT22;30743;52.008;5.644;2022-08-20T04:59:52;25.20;99.90
45008;DHT22;30743;52.008;5.644;2022-08-20T05:02:19;25.10;99.90
45008;DHT22;30743;52.008;5.644;2022-08-20T05:04:46;25.10;99.90
45008;DHT22;30743;52.008;5.644;2022-08-20T05:07:14;25.20;99.90
45008;DHT22;30743;52.008;5.644;2022-08-20T05:09:41;25.20;99.90
45008;DHT22;30743;52.008;5.644;2022-08-20T05:12:07;25.10;99.90
45008;DHT22;30743;52.008;5.644;2022-08-20T05:14:33;25.10;99.90
45008;DHT22;30743;52.008;5.644;2022-08-20T05:17:02;25.10;99.90
45008;DHT22;30743;52.008;5.644;2022-08-20T05:19:29;25.10;99.90
45008;DHT22;30743;52.008;5.644;2022-08-20T05:21:55;25.10;99.90
45008;DHT22;30743;52.008;5.644;2022-08-20T05:24:22;25.10;99.90
45008;DHT22;30743;52.008;5.644;2022-08-20T05:26:48;25.10;99.90
45008;DHT22;30743;52.008;5.644;2022-08-20T05:29:13;25.10;99.90
45008;DHT22;30743;52.008;5.644;2022-08-20T05:31:39;25.10;99.90
45008;DHT22;30743;52.008;5.644;2022-08-20T05:34:08;25.10;99.90
45008;DHT22;30743;52.008;5.644;2022-08-20T05:36:35;25.10;99.90
45008;DHT22;30743;52.008;5.644;2022-08-20T05:39:01;25.10;99.90
45008;DHT22;30743;52.008;5.644;2022-08-20T05:41:27;25.00;99.90
45008;DHT22;30743;52.008;5.644;2022-08-20T05:43:57;25.00;99.90
45008;DHT22;30743;52.008;5.644;2022-08-20T05:46:24;25.00;99.90
45008;DHT22;30743;52.008;5.644;2022-08-20T05:48:50;24.90;99.90
45008;DHT22;30743;52.008;5.644;2022-08-20T05:51:15;24.90;99.90
45008;DHT22;30743;52.008;5.644;2022-08-20T05:53:41;24.90;99.90
45008;DHT22;30743;52.008;5.644;2022-08-20T05:56:08;24.90;99.90
45008;DHT22;30743;52.008;5.644;2022-08-20T05:58:36;24.90;99.90
45008;DHT22;30743;52.008;5.644;2022-08-20T06:01:01;25.00;99.90
45008;DHT22;30743;52.008;5.644;2022-08-20T06:03:27;25.00;99.90
45008;DHT22;30743;52.008;5.644;2022-08-20T06:06:11;25.00;99.90
45008;DHT22;30743;52.008;5.644;2022-08-20T06:08:37;25.10;99.90
45008;DHT22;30743;52.008;5.644;2022-08-20T06:11:03;25.20;99.90
45008;DHT22;30743;52.008;5.644;2022-08-20T06:13:29;25.40;99.90
45008;DHT22;30743;52.008;5.644;2022-08-20T06:15:55;25.50;99.90
45008;DHT22;30743;52.008;5.644;2022-08-20T06:18:22;25.70;99.90
45008;DHT22;30743;52.008;5.644;2022-08-20T06:20:47;25.80;99.90
45008;DHT22;30743;52.008;5.644;2022-08-20T06:23:15;25.90;99.90
45008;DHT22;30743;52.008;5.644;2022-08-20T06:25:40;26.00;99.90
45008;DHT22;30743;52.008;5.644;2022-08-20T06:28:07;26.00;99.90
45008;DHT22;30743;52.008;5.644;2022-08-20T06:30:33;26.10;99.90
45008;DHT22;30743;52.008;5.644;2022-08-20T06:32:58;26.20;99.90
45008;DHT22;30743;52.008;5.644;2022-08-20T06:35:25;26.30;99.90
45008;DHT22;30743;52.008;5.644;2022-08-20T06:37:50;26.30;99.90
45008;DHT22;30743;52.008;5.644;2022-08-20T06:40:23;26.30;99.90
45008;DHT22;30743;52.008;5.644;2022-08-20T06:42:50;26.40;99.90
45008;DHT22;30743;52.008;5.644;2022-08-20T06:45:18;26.40;99.90
45008;DHT22;30743;52.008;5.644;2022-08-20T06:47:45;26.50;99.90
45008;DHT22;30743;52.008;5.644;2022-08-20T06:50:18;26.50;99.90
45008;DHT22;30743;52.008;5.644;2022-08-20T06:52:45;26.50;99.90
45008;DHT22;30743;52.008;5.644;2022-08-20T06:55:13;26.60;99.90
45008;DHT22;30743;52.008;5.644;2022-08-20T06:57:38;26.60;99.90
45008;DHT22;30743;52.008;5.644;2022-08-20T07:00:07;26.50;99.90
45008;DHT22;30743;52.008;5.644;2022-08-20T07:02:33;26.50;99.90
45008;DHT22;30743;52.008;5.644;2022-08-20T07:05:00;26.50;99.90
45008;DHT22;30743;52.008;5.644;2022-08-20T07:07:26;26.50;99.90
45008;DHT22;30743;52.008;5.644;2022-08-20T07:09:59;26.60;99.90
45008;DHT22;30743;52.008;5.644;2022-08-20T07:12:24;26.80;99.90
45008;DHT22;30743;52.008;5.644;2022-08-20T07:14:50;27.00;99.90
45008;DHT22;30743;52.008;5.644;2022-08-20T07:17:16;27.10;99.90
45008;DHT22;30743;52.008;5.644;2022-08-20T07:19:41;27.30;99.90
45008;DHT22;30743;52.008;5.644;2022-08-20T07:22:07;27.40;99.90
45008;DHT22;30743;52.008;5.644;2022-08-20T07:24:32;27.50;99.90
45008;DHT22;30743;52.008;5.644;2022-08-20T07:26:58;27.70;99.90
45008;DHT22;30743;52.008;5.644;2022-08-20T07:29:24;27.80;99.90
45008;DHT22;30743;52.008;5.644;2022-08-20T07:32:10;28.00;99.90
45008;DHT22;30743;52.008;5.644;2022-08-20T07:34:54;28.20;99.90
45008;DHT22;30743;52.008;5.644;2022-08-20T07:37:19;28.30;99.90
45008;DHT22;30743;52.008;5.644;2022-08-20T07:39:48;28.40;99.90
45008;DHT22;30743;52.008;5.644;2022-08-20T07:42:13;28.60;99.90
45008;DHT22;30743;52.008;5.644;2022-08-20T07:44:39;28.70;99.90
45008;DHT22;30743;52.008;5.644;2022-08-20T07:47:05;28.90;99.90
45008;DHT22;30743;52.008;5.644;2022-08-20T07:49:31;29.10;99.90
45008;DHT22;30743;52.008;5.644;2022-08-20T07:51:57;29.20;99.90
45008;DHT22;30743;52.008;5.644;2022-08-20T07:54:22;29.40;99.90
45008;DHT22;30743;52.008;5.644;2022-08-20T07:56:48;29.50;99.90
45008;DHT22;30743;52.008;5.644;2022-08-20T07:59:14;29.70;99.90
45008;DHT22;30743;52.008;5.644;2022-08-20T08:01:40;29.90;99.90
45008;DHT22;30743;52.008;5.644;2022-08-20T08:04:06;30.10;99.90
45008;DHT22;30743;52.008;5.644;2022-08-20T08:06:32;30.30;99.90
45008;DHT22;30743;52.008;5.644;2022-08-20T08:09:09;30.40;99.70
45008;DHT22;30743;52.008;5.644;2022-08-20T08:11:37;30.60;98.10
45008;DHT22;30743;52.008;5.644;2022-08-20T08:14:06;30.80;99.10
45008;DHT22;30743;52.008;5.644;2022-08-20T08:16:33;31.00;98.10
45008;DHT22;30743;52.008;5.644;2022-08-20T08:18:59;31.10;97.80
45008;DHT22;30743;52.008;5.644;2022-08-20T08:21:25;31.20;98.20
45008;DHT22;30743;52.008;5.644;2022-08-20T08:23:51;31.40;98.40
45008;DHT22;30743;52.008;5.644;2022-08-20T08:26:17;31.70;96.60
45008;DHT22;30743;52.008;5.644;2022-08-20T08:28:45;31.70;95.50
45008;DHT22;30743;52.008;5.644;2022-08-20T08:31:10;31.80;97.30
45008;DHT22;30743;52.008;5.644;2022-08-20T08:33:37;32.00;96.90
45008;DHT22;30743;52.008;5.644;2022-08-20T08:36:06;32.20;95.30
45008;DHT22;30743;52.008;5.644;2022-08-20T08:38:35;32.30;94.60
45008;DHT22;30743;52.008;5.644;2022-08-20T08:41:33;32.50;93.40
45008;DHT22;30743;52.008;5.644;2022-08-20T08:44:08;32.60;93.50
45008;DHT22;30743;52.008;5.644;2022-08-20T08:46:39;32.80;94.60
45008;DHT22;30743;52.008;5.644;2022-08-20T08:49:07;32.90;94.20
45008;DHT22;30743;52.008;5.644;2022-08-20T08:51:44;33.10;94.50
45008;DHT22;30743;52.008;5.644;2022-08-20T08:54:17;33.20;92.30
45008;DHT22;30743;52.008;5.644;2022-08-20T08:56:44;33.40;92.30
45008;DHT22;30743;52.008;5.644;2022-08-20T08:59:10;33.60;92.20
45008;DHT22;30743;52.008;5.644;2022-08-20T09:01:52;33.80;93.40
45008;DHT22;30743;52.008;5.644;2022-08-20T09:04:19;33.90;92.00
45008;DHT22;30743;52.008;5.644;2022-08-20T09:06:50;34.10;90.70
45008;DHT22;30743;52.008;5.644;2022-08-20T09:09:27;34.20;90.40
45008;DHT22;30743;52.008;5.644;2022-08-20T09:11:56;34.40;90.80
45008;DHT22;30743;52.008;5.644;2022-08-20T09:14:26;34.70;86.40
45008;DHT22;30743;52.008;5.644;2022-08-20T09:16:51;34.80;87.70
45008;DHT22;30743;52.008;5.644;2022-08-20T09:19:17;35.00;86.90
45008;DHT22;30743;52.008;5.644;2022-08-20T09:21:42;35.10;86.30
45008;DHT22;30743;52.008;5.644;2022-08-20T09:24:08;35.30;83.70
45008;DHT22;30743;52.008;5.644;2022-08-20T09:26:34;35.50;86.20
45008;DHT22;30743;52.008;5.644;2022-08-20T09:28:59;35.60;82.40
45008;DHT22;30743;52.008;5.644;2022-08-20T09:31:25;35.80;84.30
45008;DHT22;30743;52.008;5.644;2022-08-20T09:33:51;36.00;83.30
45008;DHT22;30743;52.008;5.644;2022-08-20T09:36:17;36.20;81.00
45008;DHT22;30743;52.008;5.644;2022-08-20T09:38:43;36.50;77.00
45008;DHT22;30743;52.008;5.644;2022-08-20T09:41:09;36.60;77.70
45008;DHT22;30743;52.008;5.644;2022-08-20T09:43:35;36.80;75.50
45008;DHT22;30743;52.008;5.644;2022-08-20T09:46:00;36.90;75.10
45008;DHT22;30743;52.008;5.644;2022-08-20T09:48:26;37.00;72.40
45008;DHT22;30743;52.008;5.644;2022-08-20T09:50:51;37.20;72.30
45008;DHT22;30743;52.008;5.644;2022-08-20T09:53:19;37.30;73.00
45008;DHT22;30743;52.008;5.644;2022-08-20T09:55:48;37.50;70.20
45008;DHT22;30743;52.008;5.644;2022-08-20T09:58:36;37.60;70.20
45008;DHT22;30743;52.008;5.644;2022-08-20T10:01:08;37.70;69.00
45008;DHT22;30743;52.008;5.644;2022-08-20T10:03:34;37.80;68.40
45008;DHT22;30743;52.008;5.644;2022-08-20T10:06:00;37.90;66.80
45008;DHT22;30743;52.008;5.644;2022-08-20T10:08:26;38.00;67.80
45008;DHT22;30743;52.008;5.644;2022-08-20T10:10:51;38.10;68.40
45008;DHT22;30743;52.008;5.644;2022-08-20T10:13:17;38.10;71.10
45008;DHT22;30743;52.008;5.644;2022-08-20T10:15:43;38.10;67.40
45008;DHT22;30743;52.008;5.644;2022-08-20T10:18:08;38.20;67.60
45008;DHT22;30743;52.008;5.644;2022-08-20T10:20:35;38.30;66.30
45008;DHT22;30743;52.008;5.644;2022-08-20T10:23:01;38.50;69.40
45008;DHT22;30743;52.008;5.644;2022-08-20T10:25:27;38.60;67.70
45008;DHT22;30743;52.008;5.644;2022-08-20T10:27:54;38.60;65.40
45008;DHT22;30743;52.008;5.644;2022-08-20T10:30:20;38.90;62.70
45008;DHT22;30743;52.008;5.644;2022-08-20T10:32:46;38.90;63.20
45008;DHT22;30743;52.008;5.644;2022-08-20T10:35:11;38.90;66.80
45008;DHT22;30743;52.008;5.644;2022-08-20T10:37:37;39.00;64.60
45008;DHT22;30743;52.008;5.644;2022-08-20T10:40:03;39.00;67.10
45008;DHT22;30743;52.008;5.644;2022-08-20T10:42:29;38.90;64.50
45008;DHT22;30743;52.008;5.644;2022-08-20T10:44:54;38.90;63.10
45008;DHT22;30743;52.008;5.644;2022-08-20T10:47:28;39.00;63.10
45008;DHT22;30743;52.008;5.644;2022-08-20T10:49:55;38.90;59.80
45008;DHT22;30743;52.008;5.644;2022-08-20T10:52:22;38.90;61.50
45008;DHT22;30743;52.008;5.644;2022-08-20T10:54:48;38.80;60.20
45008;DHT22;30743;52.008;5.644;2022-08-20T10:57:20;38.80;60.30
45008;DHT22;30743;52.008;5.644;2022-08-20T10:59:47;38.90;61.60
45008;DHT22;30743;52.008;5.644;2022-08-20T11:02:13;38.90;59.90
45008;DHT22;30743;52.008;5.644;2022-08-20T11:04:39;39.00;61.60
45008;DHT22;30743;52.008;5.644;2022-08-20T11:07:16;39.00;61.60
45008;DHT22;30743;52.008;5.644;2022-08-20T11:09:42;39.00;58.10
45008;DHT22;30743;52.008;5.644;2022-08-20T11:12:08;39.00;58.30
45008;DHT22;30743;52.008;5.644;2022-08-20T11:14:33;39.00;59.20
45008;DHT22;30743;52.008;5.644;2022-08-20T11:17:00;39.00;63.20
45008;DHT22;30743;52.008;5.644;2022-08-20T11:19:26;39.10;59.60
45008;DHT22;30743;52.008;5.644;2022-08-20T11:21:51;39.00;59.10
45008;DHT22;30743;52.008;5.644;2022-08-20T11:24:17;39.10;56.90
45008;DHT22;30743;52.008;5.644;2022-08-20T11:26:48;39.10;58.00
45008;DHT22;30743;52.008;5.644;2022-08-20T11:29:15;39.30;58.60
45008;DHT22;30743;52.008;5.644;2022-08-20T11:31:41;39.40;58.50
45008;DHT22;30743;52.008;5.644;2022-08-20T11:34:07;39.50;58.60
45008;DHT22;30743;52.008;5.644;2022-08-20T11:36:32;39.70;56.60
45008;DHT22;30743;52.008;5.644;2022-08-20T11:38:58;39.80;56.20
45008;DHT22;30743;52.008;5.644;2022-08-20T11:41:23;40.00;56.60
45008;DHT22;30743;52.008;5.644;2022-08-20T11:43:49;40.20;55.40
45008;DHT22;30743;52.008;5.644;2022-08-20T11:46:15;40.30;54.30
45008;DHT22;30743;52.008;5.644;2022-08-20T11:48:40;40.30;55.90
45008;DHT22;30743;52.008;5.644;2022-08-20T11:51:06;40.40;57.10
45008;DHT22;30743;52.008;5.644;2022-08-20T11:53:31;40.30;54.70
45008;DHT22;30743;52.008;5.644;2022-08-20T11:55:57;40.30;53.50
45008;DHT22;30743;52.008;5.644;2022-08-20T11:58:23;40.30;56.10
45008;DHT22;30743;52.008;5.644;2022-08-20T12:00:48;40.20;53.40
45008;DHT22;30743;52.008;5.644;2022-08-20T12:03:14;40.20;54.60
45008;DHT22;30743;52.008;5.644;2022-08-20T12:05:42;40.20;54.20
45008;DHT22;30743;52.008;5.644;2022-08-20T12:08:09;39.90;54.40
45008;DHT22;30743;52.008;5.644;2022-08-20T12:10:36;40.20;54.80
45008;DHT22;30743;52.008;5.644;2022-08-20T12:13:03;40.20;56.10
45008;DHT22;30743;52.008;5.644;2022-08-20T12:15:29;40.20;55.30
45008;DHT22;30743;52.008;5.644;2022-08-20T12:17:55;40.30;55.40
45008;DHT22;30743;52.008;5.644;2022-08-20T12:20:22;40.40;54.30
45008;DHT22;30743;52.008;5.644;2022-08-20T12:22:48;40.50;54.30
45008;DHT22;30743;52.008;5.644;2022-08-20T12:25:13;40.40;52.60
45008;DHT22;30743;52.008;5.644;2022-08-20T12:27:39;40.50;54.30
45008;DHT22;30743;52.008;5.644;2022-08-20T12:30:19;40.50;54.70
45008;DHT22;30743;52.008;5.644;2022-08-20T12:32:46;40.60;53.40
45008;DHT22;30743;52.008;5.644;2022-08-20T12:35:14;40.70;52.80
45008;DHT22;30743;52.008;5.644;2022-08-20T12:37:40;40.70;52.90
45008;DHT22;30743;52.008;5.644;2022-08-20T12:40:10;40.80;52.70
45008;DHT22;30743;52.008;5.644;2022-08-20T12:42:36;40.80;52.10
45008;DHT22;30743;52.008;5.644;2022-08-20T12:45:02;40.80;50.90
45008;DHT22;30743;52.008;5.644;2022-08-20T12:47:30;40.80;52.50
45008;DHT22;30743;52.008;5.644;2022-08-20T12:50:00;40.70;50.70
45008;DHT22;30743;52.008;5.644;2022-08-20T12:52:28;40.80;51.80
45008;DHT22;30743;52.008;5.644;2022-08-20T12:54:54;40.80;53.90
45008;DHT22;30743;52.008;5.644;2022-08-20T12:57:28;40.90;53.70
45008;DHT22;30743;52.008;5.644;2022-08-20T13:00:00;40.90;51.00
45008;DHT22;30743;52.008;5.644;2022-08-20T13:02:26;40.90;52.20
45008;DHT22;30743;52.008;5.644;2022-08-20T13:04:52;40.80;50.70
45008;DHT22;30743;52.008;5.644;2022-08-20T13:07:18;40.90;51.90
45008;DHT22;30743;52.008;5.644;2022-08-20T13:09:44;40.80;52.10
45008;DHT22;30743;52.008;5.644;2022-08-20T13:12:10;40.90;50.80
45008;DHT22;30743;52.008;5.644;2022-08-20T13:14:36;41.10;51.00
45008;DHT22;30743;52.008;5.644;2022-08-20T13:17:02;40.90;51.00
45008;DHT22;30743;52.008;5.644;2022-08-20T13:19:29;41.10;52.00
45008;DHT22;30743;52.008;5.644;2022-08-20T13:21:54;41.10;51.50
45008;DHT22;30743;52.008;5.644;2022-08-20T13:24:21;41.10;52.30
45008;DHT22;30743;52.008;5.644;2022-08-20T13:26:47;41.10;49.80
45008;DHT22;30743;52.008;5.644;2022-08-20T13:29:13;41.10;50.70
45008;DHT22;30743;52.008;5.644;2022-08-20T13:31:40;41.10;49.70
45008;DHT22;30743;52.008;5.644;2022-08-20T13:34:06;40.90;50.60
45008;DHT22;30743;52.008;5.644;2022-08-20T13:36:31;40.90;52.00
45008;DHT22;30743;52.008;5.644;2022-08-20T13:38:57;41.10;51.70
45008;DHT22;30743;52.008;5.644;2022-08-20T13:41:23;41.10;51.20
45008;DHT22;30743;52.008;5.644;2022-08-20T13:43:48;41.00;51.00
45008;DHT22;30743;52.008;5.644;2022-08-20T13:46:14;41.10;51.40
45008;DHT22;30743;52.008;5.644;2022-08-20T13:48:39;40.90;50.60
45008;DHT22;30743;52.008;5.644;2022-08-20T13:51:05;40.90;51.50
45008;DHT22;30743;52.008;5.644;2022-08-20T13:53:30;40.80;52.90
45008;DHT22;30743;52.008;5.644;2022-08-20T13:55:56;40.80;52.60
45008;DHT22;30743;52.008;5.644;2022-08-20T13:58:21;40.70;52.70
45008;DHT22;30743;52.008;5.644;2022-08-20T14:00:48;40.70;53.00
45008;DHT22;30743;52.008;5.644;2022-08-20T14:03:14;40.70;52.90
45008;DHT22;30743;52.008;5.644;2022-08-20T14:05:40;40.70;51.70
45008;DHT22;30743;52.008;5.644;2022-08-20T14:08:13;40.80;52.50
45008;DHT22;30743;52.008;5.644;2022-08-20T14:10:40;40.80;51.90
45008;DHT22;30743;52.008;5.644;2022-08-20T14:13:06;40.70;52.20
45008;DHT22;30743;52.008;5.644;2022-08-20T14:15:33;40.70;51.80
45008;DHT22;30743;52.008;5.644;2022-08-20T14:17:58;40.60;52.40
45008;DHT22;30743;52.008;5.644;2022-08-20T14:20:29;40.50;51.30
45008;DHT22;30743;52.008;5.644;2022-08-20T14:22:56;40.50;52.10
45008;DHT22;30743;52.008;5.644;2022-08-20T14:25:22;40.40;52.00
45008;DHT22;30743;52.008;5.644;2022-08-20T14:27:48;40.30;51.10
45008;DHT22;30743;52.008;5.644;2022-08-20T14:30:24;39.80;51.40
45008;DHT22;30743;52.008;5.644;2022-08-20T14:32:51;40.10;52.10
45008;DHT22;30743;52.008;5.644;2022-08-20T14:35:16;40.00;54.10
45008;DHT22;30743;52.008;5.644;2022-08-20T14:37:46;39.90;53.10
45008;DHT22;30743;52.008;5.644;2022-08-20T14:40:15;39.90;53.40
45008;DHT22;30743;52.008;5.644;2022-08-20T14:42:41;39.80;53.60
45008;DHT22;30743;52.008;5.644;2022-08-20T14:45:08;39.70;54.70
45008;DHT22;30743;52.008;5.644;2022-08-20T14:47:37;39.50;53.40
45008;DHT22;30743;52.008;5.644;2022-08-20T14:50:16;39.50;52.20
45008;DHT22;30743;52.008;5.644;2022-08-20T14:52:43;39.30;52.60
45008;DHT22;30743;52.008;5.644;2022-08-20T14:55:12;39.10;52.50
45008;DHT22;30743;52.008;5.644;2022-08-20T14:57:38;39.10;54.20
45008;DHT22;30743;52.008;5.644;2022-08-20T15:00:09;38.90;53.40
45008;DHT22;30743;52.008;5.644;2022-08-20T15:02:35;38.80;55.20
45008;DHT22;30743;52.008;5.644;2022-08-20T15:05:03;38.70;54.80
45008;DHT22;30743;52.008;5.644;2022-08-20T15:07:31;38.70;54.10
45008;DHT22;30743;52.008;5.644;2022-08-20T15:09:58;38.50;55.10
45008;DHT22;30743;52.008;5.644;2022-08-20T15:12:25;38.40;55.30
45008;DHT22;30743;52.008;5.644;2022-08-20T15:14:51;38.20;54.70
45008;DHT22;30743;52.008;5.644;2022-08-20T15:17:26;38.10;55.70
45008;DHT22;30743;52.008;5.644;2022-08-20T15:19:52;38.00;55.60
45008;DHT22;30743;52.008;5.644;2022-08-20T15:22:19;37.90;57.00
45008;DHT22;30743;52.008;5.644;2022-08-20T15:24:46;37.70;56.50
45008;DHT22;30743;52.008;5.644;2022-08-20T15:27:13;37.60;57.50
45008;DHT22;30743;52.008;5.644;2022-08-20T15:29:40;37.40;57.70
45008;DHT22;30743;52.008;5.644;2022-08-20T15:32:06;37.40;58.60
45008;DHT22;30743;52.008;5.644;2022-08-20T15:34:33;37.40;57.20